Witts, Indiana
Current Conditions -  °F | °C
As of 1:15 PM on Friday 31 Oct 2014 (Local Time) from KI67 Reporting Station
Overcast Overcast  
Wind Chill: 36°   Ceiling: 2200
Heat Index: 41°   Visibility: 10mi
Dew Point: 37°   Wind: 7mph
Humidity: 87%   Direction: 340°NNW
Pressure: 29.94"   Gusts: 24mph
Location:  39.6086°N, 84.9137°W
Report Text: KI67 311715Z AUTO 34006G21KT 10SM SCT012 BKN022 OVC037 05/03 A2994 RMK AO1 P0002
Loading
Personal Weather Stations






























Interactive Weather Map New forecast layout! Learn more

10-Day Weather Forecast

Advertisements
Track Severe Weather on mobile